Terminal Aerodrome Forecast
Issued by NWS

Home | Current Version | Previous Version | Text Only | Print | Product List | Glossary On
Versions: 1 2 3 4 5 6 7 8 9 10 11 12 13 14 15 16 17 18 19
000
FTAK31 PANC 191739
TAFAAQ
TAF
PAAQ 191739Z 1918/2018 VRB04KT 6SM BR BKN018
      TEMPO 1918/1920 2SM -DZ BR BKN004
     FM192100 VRB03KT P6SM SCT018 BKN060=

USA.gov is the U.S. government's official web portal to all federal, state and local government web resources and services.